sensor_id;sensor_type;location;lat;lon;timestamp;temperature;humidity
23562;DHT22;11959;49.418;8.728;2023-08-12T00:01:40;19.10;99.90
23562;DHT22;11959;49.418;8.728;2023-08-12T00:04:06;19.10;99.90
23562;DHT22;11959;49.418;8.728;2023-08-12T00:06:32;19.10;99.90
23562;DHT22;11959;49.418;8.728;2023-08-12T00:08:57;19.20;99.90
23562;DHT22;11959;49.418;8.728;2023-08-12T00:11:23;19.10;99.90
23562;DHT22;11959;49.418;8.728;2023-08-12T00:13:48;19.10;99.90
23562;DHT22;11959;49.418;8.728;2023-08-12T00:16:14;19.20;99.90
23562;DHT22;11959;49.418;8.728;2023-08-12T00:18:40;19.20;99.90
23562;DHT22;11959;49.418;8.728;2023-08-12T00:21:09;19.20;99.90
23562;DHT22;11959;49.418;8.728;2023-08-12T00:23:39;19.20;99.90
23562;DHT22;11959;49.418;8.728;2023-08-12T00:26:06;19.10;99.90
23562;DHT22;11959;49.418;8.728;2023-08-12T00:28:33;19.10;99.90
23562;DHT22;11959;49.418;8.728;2023-08-12T00:30:58;19.10;99.90
23562;DHT22;11959;49.418;8.728;2023-08-12T00:33:24;19.00;99.90
23562;DHT22;11959;49.418;8.728;2023-08-12T00:35:49;19.10;99.90
23562;DHT22;11959;49.418;8.728;2023-08-12T00:38:15;19.10;99.90
23562;DHT22;11959;49.418;8.728;2023-08-12T00:40:41;19.10;99.90
23562;DHT22;11959;49.418;8.728;2023-08-12T00:43:07;19.10;99.90
23562;DHT22;11959;49.418;8.728;2023-08-12T00:45:33;19.10;99.90
23562;DHT22;11959;49.418;8.728;2023-08-12T00:47:59;19.10;99.90
23562;DHT22;11959;49.418;8.728;2023-08-12T00:50:25;19.10;99.90
23562;DHT22;11959;49.418;8.728;2023-08-12T00:52:51;19.10;99.90
23562;DHT22;11959;49.418;8.728;2023-08-12T00:55:17;19.10;99.90
23562;DHT22;11959;49.418;8.728;2023-08-12T00:57:43;19.00;99.90
23562;DHT22;11959;49.418;8.728;2023-08-12T01:00:10;19.10;99.90
23562;DHT22;11959;49.418;8.728;2023-08-12T01:02:36;19.10;99.90
23562;DHT22;11959;49.418;8.728;2023-08-12T01:05:02;19.10;99.90
23562;DHT22;11959;49.418;8.728;2023-08-12T01:07:27;19.20;99.90
23562;DHT22;11959;49.418;8.728;2023-08-12T01:09:54;19.10;99.90
23562;DHT22;11959;49.418;8.728;2023-08-12T01:12:28;19.10;99.90
23562;DHT22;11959;49.418;8.728;2023-08-12T01:15:24;19.20;99.90
23562;DHT22;11959;49.418;8.728;2023-08-12T01:17:53;19.20;99.90
23562;DHT22;11959;49.418;8.728;2023-08-12T01:20:23;19.20;99.90
23562;DHT22;11959;49.418;8.728;2023-08-12T01:23:08;19.20;99.90
23562;DHT22;11959;49.418;8.728;2023-08-12T01:25:33;19.20;99.90
23562;DHT22;11959;49.418;8.728;2023-08-12T01:27:59;19.20;99.90
23562;DHT22;11959;49.418;8.728;2023-08-12T01:30:25;19.20;99.90
23562;DHT22;11959;49.418;8.728;2023-08-12T01:33:00;19.20;99.90
23562;DHT22;11959;49.418;8.728;2023-08-12T01:35:36;19.20;99.90
23562;DHT22;11959;49.418;8.728;2023-08-12T01:38:06;19.20;99.90
23562;DHT22;11959;49.418;8.728;2023-08-12T01:40:35;19.20;99.90
23562;DHT22;11959;49.418;8.728;2023-08-12T01:43:02;19.20;99.90
23562;DHT22;11959;49.418;8.728;2023-08-12T01:45:30;19.20;99.90
23562;DHT22;11959;49.418;8.728;2023-08-12T01:47:57;19.20;99.90
23562;DHT22;11959;49.418;8.728;2023-08-12T01:50:23;19.20;99.90
23562;DHT22;11959;49.418;8.728;2023-08-12T01:52:48;19.20;99.90
23562;DHT22;11959;49.418;8.728;2023-08-12T01:55:14;19.20;99.90
23562;DHT22;11959;49.418;8.728;2023-08-12T01:57:40;19.20;99.90
23562;DHT22;11959;49.418;8.728;2023-08-12T02:00:06;19.10;99.90
23562;DHT22;11959;49.418;8.728;2023-08-12T02:02:32;19.10;99.90
23562;DHT22;11959;49.418;8.728;2023-08-12T02:04:57;19.10;99.90
23562;DHT22;11959;49.418;8.728;2023-08-12T02:07:23;19.20;99.90
23562;DHT22;11959;49.418;8.728;2023-08-12T02:09:49;19.20;99.90
23562;DHT22;11959;49.418;8.728;2023-08-12T02:12:14;19.20;99.90
23562;DHT22;11959;49.418;8.728;2023-08-12T02:14:40;19.20;99.90
23562;DHT22;11959;49.418;8.728;2023-08-12T02:17:05;19.30;99.90
23562;DHT22;11959;49.418;8.728;2023-08-12T02:19:33;19.20;99.90
23562;DHT22;11959;49.418;8.728;2023-08-12T02:22:00;19.20;99.90
23562;DHT22;11959;49.418;8.728;2023-08-12T02:24:27;19.20;99.90
23562;DHT22;11959;49.418;8.728;2023-08-12T02:26:53;19.20;99.90
23562;DHT22;11959;49.418;8.728;2023-08-12T02:29:18;19.20;99.90
23562;DHT22;11959;49.418;8.728;2023-08-12T02:31:44;19.10;99.90
23562;DHT22;11959;49.418;8.728;2023-08-12T02:34:10;19.10;99.90
23562;DHT22;11959;49.418;8.728;2023-08-12T02:36:35;19.20;99.90
23562;DHT22;11959;49.418;8.728;2023-08-12T02:39:01;19.20;99.90
23562;DHT22;11959;49.418;8.728;2023-08-12T02:41:27;19.20;99.90
23562;DHT22;11959;49.418;8.728;2023-08-12T02:43:52;19.10;99.90
23562;DHT22;11959;49.418;8.728;2023-08-12T02:46:18;19.20;99.90
23562;DHT22;11959;49.418;8.728;2023-08-12T02:48:45;19.10;99.90
23562;DHT22;11959;49.418;8.728;2023-08-12T02:51:13;19.10;99.90
23562;DHT22;11959;49.418;8.728;2023-08-12T02:53:38;19.10;99.90
23562;DHT22;11959;49.418;8.728;2023-08-12T02:56:04;19.00;99.90
23562;DHT22;11959;49.418;8.728;2023-08-12T02:58:29;19.00;99.90
23562;DHT22;11959;49.418;8.728;2023-08-12T03:00:55;19.00;99.90
23562;DHT22;11959;49.418;8.728;2023-08-12T03:03:21;19.00;99.90
23562;DHT22;11959;49.418;8.728;2023-08-12T03:05:47;19.00;99.90
23562;DHT22;11959;49.418;8.728;2023-08-12T03:08:13;19.00;99.90
23562;DHT22;11959;49.418;8.728;2023-08-12T03:10:40;19.00;99.90
23562;DHT22;11959;49.418;8.728;2023-08-12T03:13:06;19.00;99.90
23562;DHT22;11959;49.418;8.728;2023-08-12T03:15:31;19.00;99.90
23562;DHT22;11959;49.418;8.728;2023-08-12T03:17:57;19.00;99.90
23562;DHT22;11959;49.418;8.728;2023-08-12T03:20:23;18.90;99.90
23562;DHT22;11959;49.418;8.728;2023-08-12T03:22:49;18.90;99.90
23562;DHT22;11959;49.418;8.728;2023-08-12T03:25:14;18.90;99.90
23562;DHT22;11959;49.418;8.728;2023-08-12T03:27:41;18.90;99.90
23562;DHT22;11959;49.418;8.728;2023-08-12T03:30:07;18.90;99.90
23562;DHT22;11959;49.418;8.728;2023-08-12T03:32:33;18.90;99.90
23562;DHT22;11959;49.418;8.728;2023-08-12T03:34:59;18.80;99.90
23562;DHT22;11959;49.418;8.728;2023-08-12T03:37:25;18.80;99.90
23562;DHT22;11959;49.418;8.728;2023-08-12T03:39:51;18.80;99.90
23562;DHT22;11959;49.418;8.728;2023-08-12T03:42:16;18.80;99.90
23562;DHT22;11959;49.418;8.728;2023-08-12T03:44:43;18.80;99.90
23562;DHT22;11959;49.418;8.728;2023-08-12T03:47:09;18.80;99.90
23562;DHT22;11959;49.418;8.728;2023-08-12T03:49:35;18.80;99.90
23562;DHT22;11959;49.418;8.728;2023-08-12T03:52:00;18.80;99.90
23562;DHT22;11959;49.418;8.728;2023-08-12T03:54:26;18.90;99.90
23562;DHT22;11959;49.418;8.728;2023-08-12T03:56:52;18.80;99.90
23562;DHT22;11959;49.418;8.728;2023-08-12T03:59:17;18.90;99.90
23562;DHT22;11959;49.418;8.728;2023-08-12T04:01:43;18.90;99.90
23562;DHT22;11959;49.418;8.728;2023-08-12T04:04:08;18.80;99.90
23562;DHT22;11959;49.418;8.728;2023-08-12T04:06:34;18.90;99.90
23562;DHT22;11959;49.418;8.728;2023-08-12T04:09:00;18.90;99.90
23562;DHT22;11959;49.418;8.728;2023-08-12T04:11:25;18.90;99.90
23562;DHT22;11959;49.418;8.728;2023-08-12T04:13:51;18.90;99.90
23562;DHT22;11959;49.418;8.728;2023-08-12T04:16:17;18.90;99.90
23562;DHT22;11959;49.418;8.728;2023-08-12T04:18:42;18.90;99.90
23562;DHT22;11959;49.418;8.728;2023-08-12T04:21:08;18.90;99.90
23562;DHT22;11959;49.418;8.728;2023-08-12T04:23:34;18.90;99.90
23562;DHT22;11959;49.418;8.728;2023-08-12T04:26:00;18.90;99.90
23562;DHT22;11959;49.418;8.728;2023-08-12T04:28:25;18.90;99.90
23562;DHT22;11959;49.418;8.728;2023-08-12T04:30:51;18.90;99.90
23562;DHT22;11959;49.418;8.728;2023-08-12T04:33:18;18.90;99.90
23562;DHT22;11959;49.418;8.728;2023-08-12T04:35:45;18.90;99.90
23562;DHT22;11959;49.418;8.728;2023-08-12T04:38:11;18.90;99.90
23562;DHT22;11959;49.418;8.728;2023-08-12T04:40:40;18.90;99.90
23562;DHT22;11959;49.418;8.728;2023-08-12T04:43:06;18.90;99.90
23562;DHT22;11959;49.418;8.728;2023-08-12T04:45:32;18.90;99.90
23562;DHT22;11959;49.418;8.728;2023-08-12T04:47:58;18.90;99.90
23562;DHT22;11959;49.418;8.728;2023-08-12T04:50:25;18.90;99.90
23562;DHT22;11959;49.418;8.728;2023-08-12T04:52:50;18.90;99.90
23562;DHT22;11959;49.418;8.728;2023-08-12T04:55:16;19.00;99.90
23562;DHT22;11959;49.418;8.728;2023-08-12T04:57:42;19.00;99.90
23562;DHT22;11959;49.418;8.728;2023-08-12T05:00:08;19.00;99.90
23562;DHT22;11959;49.418;8.728;2023-08-12T05:02:34;19.10;99.90
23562;DHT22;11959;49.418;8.728;2023-08-12T05:05:00;19.10;99.90
23562;DHT22;11959;49.418;8.728;2023-08-12T05:07:26;19.10;99.90
23562;DHT22;11959;49.418;8.728;2023-08-12T05:09:52;19.10;99.90
23562;DHT22;11959;49.418;8.728;2023-08-12T05:12:17;19.20;99.90
23562;DHT22;11959;49.418;8.728;2023-08-12T05:14:43;19.10;99.90
23562;DHT22;11959;49.418;8.728;2023-08-12T05:17:09;19.10;99.90
23562;DHT22;11959;49.418;8.728;2023-08-12T05:19:34;19.10;99.90
23562;DHT22;11959;49.418;8.728;2023-08-12T05:22:00;19.10;99.90
23562;DHT22;11959;49.418;8.728;2023-08-12T05:24:26;19.10;99.90
23562;DHT22;11959;49.418;8.728;2023-08-12T05:26:51;19.20;99.90
23562;DHT22;11959;49.418;8.728;2023-08-12T05:29:17;19.20;99.90
23562;DHT22;11959;49.418;8.728;2023-08-12T05:31:43;19.20;99.90
23562;DHT22;11959;49.418;8.728;2023-08-12T05:34:08;19.30;99.90
23562;DHT22;11959;49.418;8.728;2023-08-12T05:36:35;19.30;99.90
23562;DHT22;11959;49.418;8.728;2023-08-12T05:39:01;19.30;99.90
23562;DHT22;11959;49.418;8.728;2023-08-12T05:41:28;19.30;99.90
23562;DHT22;11959;49.418;8.728;2023-08-12T05:43:54;19.30;99.90
23562;DHT22;11959;49.418;8.728;2023-08-12T05:46:20;19.30;99.90
23562;DHT22;11959;49.418;8.728;2023-08-12T05:48:46;19.40;99.90
23562;DHT22;11959;49.418;8.728;2023-08-12T05:51:11;19.40;99.90
23562;DHT22;11959;49.418;8.728;2023-08-12T05:53:38;19.40;99.90
23562;DHT22;11959;49.418;8.728;2023-08-12T05:56:03;19.50;99.90
23562;DHT22;11959;49.418;8.728;2023-08-12T05:58:29;19.60;99.90
23562;DHT22;11959;49.418;8.728;2023-08-12T06:00:55;19.60;99.90
23562;DHT22;11959;49.418;8.728;2023-08-12T06:03:20;19.60;99.90
23562;DHT22;11959;49.418;8.728;2023-08-12T06:05:46;19.60;99.90
23562;DHT22;11959;49.418;8.728;2023-08-12T06:08:13;19.60;99.90
23562;DHT22;11959;49.418;8.728;2023-08-12T06:10:39;19.60;99.90
23562;DHT22;11959;49.418;8.728;2023-08-12T06:13:04;19.60;99.90
23562;DHT22;11959;49.418;8.728;2023-08-12T06:15:30;19.60;99.90
23562;DHT22;11959;49.418;8.728;2023-08-12T06:17:56;19.60;99.90
23562;DHT22;11959;49.418;8.728;2023-08-12T06:20:23;19.60;99.90
23562;DHT22;11959;49.418;8.728;2023-08-12T06:22:50;19.70;99.90
23562;DHT22;11959;49.418;8.728;2023-08-12T06:25:16;19.80;99.90
23562;DHT22;11959;49.418;8.728;2023-08-12T06:27:41;19.90;99.90
23562;DHT22;11959;49.418;8.728;2023-08-12T06:30:08;20.00;99.90
23562;DHT22;11959;49.418;8.728;2023-08-12T06:32:34;20.00;99.90
23562;DHT22;11959;49.418;8.728;2023-08-12T06:35:00;20.10;99.90
23562;DHT22;11959;49.418;8.728;2023-08-12T06:37:26;20.20;99.90
23562;DHT22;11959;49.418;8.728;2023-08-12T06:39:51;20.20;99.90
23562;DHT22;11959;49.418;8.728;2023-08-12T06:42:17;20.30;99.90
23562;DHT22;11959;49.418;8.728;2023-08-12T06:44:44;20.30;99.90
23562;DHT22;11959;49.418;8.728;2023-08-12T06:47:10;20.30;99.90
23562;DHT22;11959;49.418;8.728;2023-08-12T06:49:36;20.30;99.90
23562;DHT22;11959;49.418;8.728;2023-08-12T06:52:01;20.40;99.90
23562;DHT22;11959;49.418;8.728;2023-08-12T06:54:27;20.40;99.90
23562;DHT22;11959;49.418;8.728;2023-08-12T06:56:53;20.50;99.90
23562;DHT22;11959;49.418;8.728;2023-08-12T06:59:18;20.70;99.90
23562;DHT22;11959;49.418;8.728;2023-08-12T07:01:44;20.80;99.90
23562;DHT22;11959;49.418;8.728;2023-08-12T07:04:10;20.90;99.90
23562;DHT22;11959;49.418;8.728;2023-08-12T07:06:35;21.10;99.90
23562;DHT22;11959;49.418;8.728;2023-08-12T07:09:01;21.10;99.90
23562;DHT22;11959;49.418;8.728;2023-08-12T07:11:27;21.20;99.90
23562;DHT22;11959;49.418;8.728;2023-08-12T07:13:52;21.30;99.90
23562;DHT22;11959;49.418;8.728;2023-08-12T07:16:18;21.30;99.90
23562;DHT22;11959;49.418;8.728;2023-08-12T07:18:43;21.40;99.90
23562;DHT22;11959;49.418;8.728;2023-08-12T07:21:09;21.40;99.90
23562;DHT22;11959;49.418;8.728;2023-08-12T07:23:35;21.50;99.90
23562;DHT22;11959;49.418;8.728;2023-08-12T07:26:00;21.60;99.90
23562;DHT22;11959;49.418;8.728;2023-08-12T07:28:26;21.60;99.90
23562;DHT22;11959;49.418;8.728;2023-08-12T07:30:52;21.80;99.90
23562;DHT22;11959;49.418;8.728;2023-08-12T07:33:17;21.80;99.90
23562;DHT22;11959;49.418;8.728;2023-08-12T07:35:43;21.80;99.90
23562;DHT22;11959;49.418;8.728;2023-08-12T07:38:09;21.80;99.90
23562;DHT22;11959;49.418;8.728;2023-08-12T07:40:35;21.80;99.90
23562;DHT22;11959;49.418;8.728;2023-08-12T07:43:00;21.80;99.90
23562;DHT22;11959;49.418;8.728;2023-08-12T07:45:26;21.90;99.90
23562;DHT22;11959;49.418;8.728;2023-08-12T07:47:51;21.90;99.90
23562;DHT22;11959;49.418;8.728;2023-08-12T07:50:18;22.00;99.90
23562;DHT22;11959;49.418;8.728;2023-08-12T07:52:43;22.00;99.90
23562;DHT22;11959;49.418;8.728;2023-08-12T07:55:09;22.10;99.90
23562;DHT22;11959;49.418;8.728;2023-08-12T07:57:35;22.10;99.90
23562;DHT22;11959;49.418;8.728;2023-08-12T08:00:00;22.20;99.90
23562;DHT22;11959;49.418;8.728;2023-08-12T08:02:26;22.20;99.90
23562;DHT22;11959;49.418;8.728;2023-08-12T08:04:52;22.30;99.90
23562;DHT22;11959;49.418;8.728;2023-08-12T08:07:18;22.30;99.90
23562;DHT22;11959;49.418;8.728;2023-08-12T08:09:44;22.30;99.90
23562;DHT22;11959;49.418;8.728;2023-08-12T08:12:10;22.40;99.90
23562;DHT22;11959;49.418;8.728;2023-08-12T08:14:37;22.50;99.90
23562;DHT22;11959;49.418;8.728;2023-08-12T08:17:02;22.70;99.90
23562;DHT22;11959;49.418;8.728;2023-08-12T08:19:29;22.80;99.90
23562;DHT22;11959;49.418;8.728;2023-08-12T08:21:56;22.90;99.90
23562;DHT22;11959;49.418;8.728;2023-08-12T08:24:22;22.90;99.90
23562;DHT22;11959;49.418;8.728;2023-08-12T08:26:47;23.00;99.90
23562;DHT22;11959;49.418;8.728;2023-08-12T08:29:13;23.10;99.90
23562;DHT22;11959;49.418;8.728;2023-08-12T08:31:39;23.20;99.90
23562;DHT22;11959;49.418;8.728;2023-08-12T08:34:04;23.30;99.90
23562;DHT22;11959;49.418;8.728;2023-08-12T08:36:30;23.40;99.90
23562;DHT22;11959;49.418;8.728;2023-08-12T08:38:56;23.50;99.90
23562;DHT22;11959;49.418;8.728;2023-08-12T08:41:23;23.60;99.90
23562;DHT22;11959;49.418;8.728;2023-08-12T08:43:50;23.80;99.90
23562;DHT22;11959;49.418;8.728;2023-08-12T08:46:18;23.90;99.90
23562;DHT22;11959;49.418;8.728;2023-08-12T08:48:45;24.00;99.90
23562;DHT22;11959;49.418;8.728;2023-08-12T08:51:12;24.10;99.90
23562;DHT22;11959;49.418;8.728;2023-08-12T08:53:39;24.20;99.90
23562;DHT22;11959;49.418;8.728;2023-08-12T08:56:07;24.30;99.90
23562;DHT22;11959;49.418;8.728;2023-08-12T08:58:33;24.40;99.90
23562;DHT22;11959;49.418;8.728;2023-08-12T09:00:59;24.40;99.90
23562;DHT22;11959;49.418;8.728;2023-08-12T09:03:25;24.50;99.90
23562;DHT22;11959;49.418;8.728;2023-08-12T09:05:53;24.50;99.90
23562;DHT22;11959;49.418;8.728;2023-08-12T09:08:21;24.50;99.90
23562;DHT22;11959;49.418;8.728;2023-08-12T09:10:48;24.50;99.90
23562;DHT22;11959;49.418;8.728;2023-08-12T09:13:14;24.60;99.90
23562;DHT22;11959;49.418;8.728;2023-08-12T09:15:41;24.70;99.90
23562;DHT22;11959;49.418;8.728;2023-08-12T09:18:07;24.80;99.90
23562;DHT22;11959;49.418;8.728;2023-08-12T09:20:34;24.80;99.90
23562;DHT22;11959;49.418;8.728;2023-08-12T09:23:00;24.80;99.90
23562;DHT22;11959;49.418;8.728;2023-08-12T09:25:27;24.80;99.90
23562;DHT22;11959;49.418;8.728;2023-08-12T09:27:55;24.90;99.90
23562;DHT22;11959;49.418;8.728;2023-08-12T09:30:23;25.00;99.90
23562;DHT22;11959;49.418;8.728;2023-08-12T09:32:59;25.10;99.90
23562;DHT22;11959;49.418;8.728;2023-08-12T09:35:34;25.30;99.90
23562;DHT22;11959;49.418;8.728;2023-08-12T09:38:13;25.50;99.90
23562;DHT22;11959;49.418;8.728;2023-08-12T09:40:39;25.70;99.90
23562;DHT22;11959;49.418;8.728;2023-08-12T09:43:05;25.80;99.90
23562;DHT22;11959;49.418;8.728;2023-08-12T09:45:32;25.80;99.90
23562;DHT22;11959;49.418;8.728;2023-08-12T09:47:58;25.80;99.90
23562;DHT22;11959;49.418;8.728;2023-08-12T09:50:27;25.80;99.90
23562;DHT22;11959;49.418;8.728;2023-08-12T09:52:53;25.90;99.90
23562;DHT22;11959;49.418;8.728;2023-08-12T09:55:24;26.00;99.90
23562;DHT22;11959;49.418;8.728;2023-08-12T09:57:54;26.10;99.90
23562;DHT22;11959;49.418;8.728;2023-08-12T10:00:22;26.40;99.90
23562;DHT22;11959;49.418;8.728;2023-08-12T10:02:51;26.60;99.90
23562;DHT22;11959;49.418;8.728;2023-08-12T10:05:33;26.70;99.90
23562;DHT22;11959;49.418;8.728;2023-08-12T10:07:59;26.90;99.90
23562;DHT22;11959;49.418;8.728;2023-08-12T10:10:29;27.00;99.90
23562;DHT22;11959;49.418;8.728;2023-08-12T10:12:55;27.00;99.90
23562;DHT22;11959;49.418;8.728;2023-08-12T10:15:21;27.00;99.90
23562;DHT22;11959;49.418;8.728;2023-08-12T10:17:48;27.10;99.90
23562;DHT22;11959;49.418;8.728;2023-08-12T10:20:23;27.10;99.90
23562;DHT22;11959;49.418;8.728;2023-08-12T10:22:50;27.10;99.90
23562;DHT22;11959;49.418;8.728;2023-08-12T10:25:18;27.20;99.90
23562;DHT22;11959;49.418;8.728;2023-08-12T10:27:44;27.30;99.90
23562;DHT22;11959;49.418;8.728;2023-08-12T10:30:10;27.30;99.90
23562;DHT22;11959;49.418;8.728;2023-08-12T10:32:39;27.40;99.90
23562;DHT22;11959;49.418;8.728;2023-08-12T10:35:05;27.40;99.90
23562;DHT22;11959;49.418;8.728;2023-08-12T10:37:32;27.40;99.90
23562;DHT22;11959;49.418;8.728;2023-08-12T10:39:59;27.40;99.90
23562;DHT22;11959;49.418;8.728;2023-08-12T10:42:45;27.20;99.90
23562;DHT22;11959;49.418;8.728;2023-08-12T10:45:13;27.00;99.90
23562;DHT22;11959;49.418;8.728;2023-08-12T10:47:47;27.00;99.90
23562;DHT22;11959;49.418;8.728;2023-08-12T10:50:21;26.90;99.90
23562;DHT22;11959;49.418;8.728;2023-08-12T10:52:47;26.90;99.90
23562;DHT22;11959;49.418;8.728;2023-08-12T10:55:24;26.90;99.90
23562;DHT22;11959;49.418;8.728;2023-08-12T10:57:51;27.00;99.90
23562;DHT22;11959;49.418;8.728;2023-08-12T11:00:28;27.10;99.90
23562;DHT22;11959;49.418;8.728;2023-08-12T11:02:56;27.10;99.90
23562;DHT22;11959;49.418;8.728;2023-08-12T11:05:23;27.10;99.90
23562;DHT22;11959;49.418;8.728;2023-08-12T11:08:01;27.10;99.90
23562;DHT22;11959;49.418;8.728;2023-08-12T11:10:33;27.10;99.90
23562;DHT22;11959;49.418;8.728;2023-08-12T11:12:59;27.00;99.90
23562;DHT22;11959;49.418;8.728;2023-08-12T11:15:36;26.90;99.90
23562;DHT22;11959;49.418;8.728;2023-08-12T11:18:04;26.70;99.90
23562;DHT22;11959;49.418;8.728;2023-08-12T11:20:30;26.60;99.90
23562;DHT22;11959;49.418;8.728;2023-08-12T11:22:56;26.40;99.90
23562;DHT22;11959;49.418;8.728;2023-08-12T11:25:24;26.20;99.90
23562;DHT22;11959;49.418;8.728;2023-08-12T11:27:49;26.00;99.90
23562;DHT22;11959;49.418;8.728;2023-08-12T11:30:17;25.90;99.90
23562;DHT22;11959;49.418;8.728;2023-08-12T11:32:44;25.70;99.90
23562;DHT22;11959;49.418;8.728;2023-08-12T11:35:12;25.40;99.90
23562;DHT22;11959;49.418;8.728;2023-08-12T11:37:38;25.10;99.90
23562;DHT22;11959;49.418;8.728;2023-08-12T11:40:06;24.90;99.90
23562;DHT22;11959;49.418;8.728;2023-08-12T11:42:38;24.70;99.90
23562;DHT22;11959;49.418;8.728;2023-08-12T11:45:05;24.50;99.90
23562;DHT22;11959;49.418;8.728;2023-08-12T11:47:31;24.30;99.90
23562;DHT22;11959;49.418;8.728;2023-08-12T11:49:57;24.10;99.90
23562;DHT22;11959;49.418;8.728;2023-08-12T11:52:23;23.90;99.90
23562;DHT22;11959;49.418;8.728;2023-08-12T11:54:52;23.80;99.90
23562;DHT22;11959;49.418;8.728;2023-08-12T11:57:18;23.70;99.90
23562;DHT22;11959;49.418;8.728;2023-08-12T11:59:44;23.30;99.90
23562;DHT22;11959;49.418;8.728;2023-08-12T12:02:11;23.10;99.90
23562;DHT22;11959;49.418;8.728;2023-08-12T12:04:37;22.90;99.90
23562;DHT22;11959;49.418;8.728;2023-08-12T12:07:03;22.80;99.90
23562;DHT22;11959;49.418;8.728;2023-08-12T12:09:32;22.80;99.90
23562;DHT22;11959;49.418;8.728;2023-08-12T12:11:59;22.80;99.90
23562;DHT22;11959;49.418;8.728;2023-08-12T12:14:25;22.90;99.90
23562;DHT22;11959;49.418;8.728;2023-08-12T12:16:51;22.90;99.90
23562;DHT22;11959;49.418;8.728;2023-08-12T12:19:18;22.90;99.90
23562;DHT22;11959;49.418;8.728;2023-08-12T12:21:52;23.10;99.90
23562;DHT22;11959;49.418;8.728;2023-08-12T12:24:19;23.20;99.90
23562;DHT22;11959;49.418;8.728;2023-08-12T12:26:46;23.30;99.90
23562;DHT22;11959;49.418;8.728;2023-08-12T12:29:13;23.30;99.90
23562;DHT22;11959;49.418;8.728;2023-08-12T12:31:40;23.40;99.90
23562;DHT22;11959;49.418;8.728;2023-08-12T12:34:07;23.50;99.90
23562;DHT22;11959;49.418;8.728;2023-08-12T12:36:37;23.60;99.90
23562;DHT22;11959;49.418;8.728;2023-08-12T12:39:04;23.60;99.90
23562;DHT22;11959;49.418;8.728;2023-08-12T12:41:30;23.70;99.90
23562;DHT22;11959;49.418;8.728;2023-08-12T12:43:56;23.80;99.90
23562;DHT22;11959;49.418;8.728;2023-08-12T12:46:22;23.80;99.90
23562;DHT22;11959;49.418;8.728;2023-08-12T12:48:47;24.00;99.90
23562;DHT22;11959;49.418;8.728;2023-08-12T12:51:13;24.20;99.90
23562;DHT22;11959;49.418;8.728;2023-08-12T12:53:40;24.20;99.90
23562;DHT22;11959;49.418;8.728;2023-08-12T12:56:06;24.20;99.90
23562;DHT22;11959;49.418;8.728;2023-08-12T12:58:32;24.20;99.90
23562;DHT22;11959;49.418;8.728;2023-08-12T13:00:59;24.30;99.90
23562;DHT22;11959;49.418;8.728;2023-08-12T13:03:25;24.20;99.90
23562;DHT22;11959;49.418;8.728;2023-08-12T13:05:51;24.10;99.90
23562;DHT22;11959;49.418;8.728;2023-08-12T13:08:16;24.10;99.90
23562;DHT22;11959;49.418;8.728;2023-08-12T13:10:42;23.80;99.90
23562;DHT22;11959;49.418;8.728;2023-08-12T13:13:08;23.60;99.90
23562;DHT22;11959;49.418;8.728;2023-08-12T13:15:34;23.60;99.90
23562;DHT22;11959;49.418;8.728;2023-08-12T13:18:00;23.50;99.90
23562;DHT22;11959;49.418;8.728;2023-08-12T13:20:26;23.50;99.90
23562;DHT22;11959;49.418;8.728;2023-08-12T13:22:52;23.60;99.90
23562;DHT22;11959;49.418;8.728;2023-08-12T13:25:17;23.60;99.90
23562;DHT22;11959;49.418;8.728;2023-08-12T13:27:43;23.70;99.90
23562;DHT22;11959;49.418;8.728;2023-08-12T13:30:09;23.70;99.90
23562;DHT22;11959;49.418;8.728;2023-08-12T13:32:37;23.70;99.90
23562;DHT22;11959;49.418;8.728;2023-08-12T13:35:03;23.80;99.90
23562;DHT22;11959;49.418;8.728;2023-08-12T13:37:33;23.80;99.90
23562;DHT22;11959;49.418;8.728;2023-08-12T13:39:59;23.80;99.90
23562;DHT22;11959;49.418;8.728;2023-08-12T13:42:25;23.80;99.90
23562;DHT22;11959;49.418;8.728;2023-08-12T13:44:50;23.80;99.90
23562;DHT22;11959;49.418;8.728;2023-08-12T13:47:16;23.80;99.90
23562;DHT22;11959;49.418;8.728;2023-08-12T13:49:41;23.80;99.90
23562;DHT22;11959;49.418;8.728;2023-08-12T13:52:07;23.80;99.90
23562;DHT22;11959;49.418;8.728;2023-08-12T13:54:33;23.80;99.90
23562;DHT22;11959;49.418;8.728;2023-08-12T13:56:59;23.70;99.90
23562;DHT22;11959;49.418;8.728;2023-08-12T13:59:25;23.70;99.90
23562;DHT22;11959;49.418;8.728;2023-08-12T14:01:50;23.60;99.90
23562;DHT22;11959;49.418;8.728;2023-08-12T14:04:16;23.50;99.90
23562;DHT22;11959;49.418;8.728;2023-08-12T14:06:42;23.50;99.90
23562;DHT22;11959;49.418;8.728;2023-08-12T14:09:09;23.40;99.90
23562;DHT22;11959;49.418;8.728;2023-08-12T14:11:35;23.40;99.90
23562;DHT22;11959;49.418;8.728;2023-08-12T14:14:01;23.30;99.90
23562;DHT22;11959;49.418;8.728;2023-08-12T14:16:27;23.30;99.90
23562;DHT22;11959;49.418;8.728;2023-08-12T14:18:52;23.30;99.90
23562;DHT22;11959;49.418;8.728;2023-08-12T14:21:18;23.30;99.90
23562;DHT22;11959;49.418;8.728;2023-08-12T14:23:43;23.40;99.90
23562;DHT22;11959;49.418;8.728;2023-08-12T14:26:09;23.40;99.90
23562;DHT22;11959;49.418;8.728;2023-08-12T14:28:35;23.50;99.90
23562;DHT22;11959;49.418;8.728;2023-08-12T14:31:00;23.50;99.90
23562;DHT22;11959;49.418;8.728;2023-08-12T14:33:26;23.60;99.90
23562;DHT22;11959;49.418;8.728;2023-08-12T14:35:57;23.60;99.90
23562;DHT22;11959;49.418;8.728;2023-08-12T14:38:22;23.50;99.90
23562;DHT22;11959;49.418;8.728;2023-08-12T14:40:48;23.50;99.90
23562;DHT22;11959;49.418;8.728;2023-08-12T14:43:15;23.50;99.90
23562;DHT22;11959;49.418;8.728;2023-08-12T14:45:41;23.50;99.90
23562;DHT22;11959;49.418;8.728;2023-08-12T14:48:06;23.50;99.90
23562;DHT22;11959;49.418;8.728;2023-08-12T14:50:32;23.50;99.90
23562;DHT22;11959;49.418;8.728;2023-08-12T14:52:58;23.50;99.90
23562;DHT22;11959;49.418;8.728;2023-08-12T14:55:24;23.40;99.90
23562;DHT22;11959;49.418;8.728;2023-08-12T14:57:50;23.40;99.90
23562;DHT22;11959;49.418;8.728;2023-08-12T15:00:16;23.40;99.90
23562;DHT22;11959;49.418;8.728;2023-08-12T15:02:42;23.30;99.90
23562;DHT22;11959;49.418;8.728;2023-08-12T15:05:07;23.30;99.90
23562;DHT22;11959;49.418;8.728;2023-08-12T15:07:33;23.30;99.90
23562;DHT22;11959;49.418;8.728;2023-08-12T15:09:59;23.30;99.90
23562;DHT22;11959;49.418;8.728;2023-08-12T15:12:25;23.20;99.90
23562;DHT22;11959;49.418;8.728;2023-08-12T15:14:52;23.20;99.90
23562;DHT22;11959;49.418;8.728;2023-08-12T15:17:18;23.20;99.90
23562;DHT22;11959;49.418;8.728;2023-08-12T15:19:44;23.30;99.90
23562;DHT22;11959;49.418;8.728;2023-08-12T15:22:09;23.20;99.90
23562;DHT22;11959;49.418;8.728;2023-08-12T15:24:35;23.20;99.90
23562;DHT22;11959;49.418;8.728;2023-08-12T15:27:00;23.10;99.90